Time;durP1;ratioP1;P1;durP2;ratioP2;P2;SDS_P1;SDS_P2;PMS_P1;PMS_P2;Temp;Humidity;BMP_temperature;BMP_pressure;BME280_temperature;BME280_humidity;BME280_pressure;Samples;Min_cycle;Max_cycle;Signal;HPM_P1;HPM_P2
2023/10/04 00:01:16;;;;;;;5.67;2.10;;;13.00;99.90;;;;;;5101707;28;20674;-58
2023/10/04 00:03:43;;;;;;;3.73;2.00;;;13.00;99.90;;;;;;5101449;28;22379;-56
2023/10/04 00:06:10;;;;;;;3.13;2.07;;;13.00;99.90;;;;;;5101641;28;20595;-58
2023/10/04 00:08:37;;;;;;;3.13;2.13;;;12.90;99.90;;;;;;5103355;28;20713;-57
2023/10/04 00:11:04;;;;;;;3.03;2.50;;;12.90;99.90;;;;;;5104947;28;20302;-59
2023/10/04 00:13:33;;;;;;;4.13;2.10;;;12.80;99.90;;;;;;5103749;28;20206;-57
2023/10/04 00:16:00;;;;;;;4.87;2.13;;;12.80;99.90;;;;;;5101068;28;20209;-56
2023/10/04 00:18:28;;;;;;;3.50;1.80;;;12.70;99.90;;;;;;5101504;28;20220;-58
2023/10/04 00:20:55;;;;;;;4.00;2.03;;;12.60;99.90;;;;;;5104803;28;20587;-58
2023/10/04 00:23:22;;;;;;;3.43;2.07;;;12.50;99.90;;;;;;5104744;28;20246;-57
2023/10/04 00:25:48;;;;;;;4.90;2.03;;;12.40;99.90;;;;;;5100987;28;20231;-58
2023/10/04 00:28:15;;;;;;;2.20;1.50;;;12.30;99.90;;;;;;5100968;28;20254;-57
2023/10/04 00:30:44;;;;;;;2.60;1.80;;;12.30;99.90;;;;;;5103608;28;20220;-57
2023/10/04 00:33:12;;;;;;;3.00;1.87;;;12.20;99.90;;;;;;5104407;28;20733;-59
2023/10/04 00:35:40;;;;;;;4.53;1.80;;;12.20;99.90;;;;;;5102587;28;20215;-57
2023/10/04 00:38:09;;;;;;;7.77;2.00;;;12.20;99.90;;;;;;5100812;28;20278;-58
2023/10/04 00:40:37;;;;;;;3.40;1.90;;;12.20;99.90;;;;;;5102607;28;20287;-58
2023/10/04 00:43:05;;;;;;;2.97;1.70;;;12.10;99.90;;;;;;5104282;28;20207;-55
2023/10/04 00:45:35;;;;;;;3.93;1.80;;;12.00;99.90;;;;;;5103157;28;20211;-55
2023/10/04 00:48:10;;;;;;;2.63;1.90;;;12.00;99.90;;;;;;5100609;28;20224;-57
2023/10/04 00:50:37;;;;;;;3.97;2.07;;;11.90;99.90;;;;;;5102418;28;20223;-57
2023/10/04 00:53:08;;;;;;;2.50;1.80;;;11.80;99.90;;;;;;5104255;28;20204;-58
2023/10/04 00:55:37;;;;;;;3.43;1.90;;;11.80;99.90;;;;;;5102490;28;20252;-56
2023/10/04 00:58:06;;;;;;;3.57;2.00;;;11.90;99.90;;;;;;5100650;28;20281;-57
2023/10/04 01:00:33;;;;;;;3.90;1.90;;;11.90;99.90;;;;;;5101998;28;20261;-58
2023/10/04 01:03:00;;;;;;;3.13;1.70;;;11.90;99.90;;;;;;5104149;28;20203;-57
2023/10/04 01:05:28;;;;;;;3.90;2.10;;;11.90;99.90;;;;;;5103589;28;20208;-57
2023/10/04 01:07:56;;;;;;;3.50;2.00;;;11.90;99.90;;;;;;5100134;28;20774;-57
2023/10/04 01:10:30;;;;;;;2.63;2.00;;;11.90;99.90;;;;;;5100181;28;20228;-57
2023/10/04 01:12:57;;;;;;;3.00;1.80;;;11.90;99.90;;;;;;5092941;28;20232;-57
2023/10/04 01:15:32;;;;;;;3.60;2.00;;;11.90;99.90;;;;;;5100279;28;20204;-59
2023/10/04 01:18:01;;;;;;;5.07;1.90;;;11.80;99.90;;;;;;5092839;28;20894;-57
2023/10/04 01:20:30;;;;;;;2.77;1.63;;;11.80;99.90;;;;;;5100401;28;20626;-59
2023/10/04 01:23:01;;;;;;;3.03;2.10;;;11.80;99.90;;;;;;5103786;28;20262;-57
2023/10/04 01:25:32;;;;;;;3.23;2.00;;;11.70;99.90;;;;;;5103251;28;20223;-59
2023/10/04 01:28:00;;;;;;;3.03;1.97;;;11.70;99.90;;;;;;5099308;28;20713;-58
2023/10/04 01:30:26;;;;;;;2.77;1.73;;;11.70;99.90;;;;;;5099960;28;20705;-58
2023/10/04 01:32:54;;;;;;;4.90;2.03;;;11.70;99.90;;;;;;5103561;28;20211;-57
2023/10/04 01:35:23;;;;;;;4.17;2.10;;;11.70;99.90;;;;;;5103140;28;20262;-58
2023/10/04 01:37:50;;;;;;;3.00;2.00;;;11.70;99.90;;;;;;5099918;28;20220;-57
2023/10/04 01:40:22;;;;;;;3.23;1.80;;;11.70;99.90;;;;;;5100053;28;20197;-58
2023/10/04 01:42:48;;;;;;;3.37;1.93;;;11.80;99.90;;;;;;5103108;28;20283;-57
2023/10/04 01:45:18;;;;;;;3.00;2.00;;;11.90;99.90;;;;;;5103103;28;20687;-55
2023/10/04 01:47:45;;;;;;;3.17;2.00;;;12.00;99.90;;;;;;5123332;22;20231;-61
2023/10/04 01:50:12;;;;;;;4.67;1.97;;;12.00;99.90;;;;;;5070487;28;20233;-61
2023/10/04 01:52:39;;;;;;;3.27;2.27;;;12.00;99.90;;;;;;5070993;28;20207;-59
2023/10/04 01:55:10;;;;;;;3.23;1.93;;;11.90;99.90;;;;;;5070957;28;20205;-62
2023/10/04 01:57:40;;;;;;;3.30;1.70;;;11.90;99.90;;;;;;5070822;28;20232;-59
2023/10/04 02:00:11;;;;;;;2.60;1.70;;;11.80;99.90;;;;;;5050788;28;20585;-59
2023/10/04 02:02:38;;;;;;;3.93;2.37;;;11.80;99.90;;;;;;5050929;28;20206;-60
2023/10/04 02:05:09;;;;;;;3.60;1.90;;;11.70;99.90;;;;;;5051003;28;20209;-59
2023/10/04 02:07:38;;;;;;;3.70;1.83;;;11.70;99.90;;;;;;5050631;28;20224;-59
2023/10/04 02:10:09;;;;;;;5.50;2.10;;;11.70;99.90;;;;;;5050718;28;20221;-60
2023/10/04 02:12:36;;;;;;;3.20;1.90;;;11.70;99.90;;;;;;5050620;28;20282;-59
2023/10/04 02:15:06;;;;;;;2.80;1.60;;;11.80;99.90;;;;;;5050813;28;20228;-60
2023/10/04 02:17:33;;;;;;;3.10;2.00;;;11.90;99.90;;;;;;5050336;28;20225;-60
2023/10/04 02:20:00;;;;;;;3.37;2.07;;;11.90;99.90;;;;;;5050627;28;20221;-60
2023/10/04 02:22:28;;;;;;;3.23;1.77;;;11.90;99.90;;;;;;5050832;28;20205;-60
2023/10/04 02:24:55;;;;;;;3.33;1.90;;;11.90;99.90;;;;;;5042779;28;20212;-59
2023/10/04 02:27:21;;;;;;;2.87;1.80;;;11.80;99.90;;;;;;5050429;28;20206;-60
2023/10/04 02:29:49;;;;;;;4.33;1.80;;;11.90;99.90;;;;;;5050296;28;20229;-60
2023/10/04 02:32:17;;;;;;;1.90;1.47;;;11.90;99.90;;;;;;5050910;28;20206;-60
2023/10/04 02:34:44;;;;;;;3.57;1.80;;;12.00;99.90;;;;;;5050138;28;20291;-60
2023/10/04 02:37:11;;;;;;;2.33;1.63;;;12.10;99.90;;;;;;5050267;28;20237;-60
2023/10/04 02:39:38;;;;;;;3.67;1.97;;;12.10;99.90;;;;;;5051935;28;20237;-60
2023/10/04 02:42:09;;;;;;;5.40;1.70;;;12.10;99.90;;;;;;5054293;28;20198;-60
2023/10/04 02:44:36;;;;;;;3.67;1.80;;;12.10;99.90;;;;;;5054774;28;20209;-60
2023/10/04 02:47:06;;;;;;;3.50;2.03;;;12.10;99.90;;;;;;5054214;28;20309;-60
2023/10/04 02:49:37;;;;;;;3.03;1.70;;;12.10;99.90;;;;;;5054050;28;20253;-60
2023/10/04 02:52:05;;;;;;;2.53;1.80;;;12.10;99.90;;;;;;5053972;28;20251;-60
2023/10/04 02:54:32;;;;;;;2.27;1.70;;;12.10;99.90;;;;;;5054052;28;20284;-60
2023/10/04 02:57:00;;;;;;;3.27;1.80;;;12.10;99.90;;;;;;5053986;28;20224;-60
2023/10/04 02:59:27;;;;;;;3.30;1.87;;;12.10;99.90;;;;;;5054064;28;20701;-60
2023/10/04 03:01:54;;;;;;;2.87;1.70;;;12.20;99.90;;;;;;5045841;28;20586;-60
2023/10/04 03:04:21;;;;;;;5.93;1.90;;;12.10;99.90;;;;;;5053924;28;20210;-60
2023/10/04 03:06:51;;;;;;;4.43;1.93;;;12.30;99.90;;;;;;5053502;28;20213;-61
2023/10/04 03:09:17;;;;;;;4.00;1.90;;;12.30;99.90;;;;;;5053791;28;20774;-61
2023/10/04 03:11:44;;;;;;;8.10;5.33;;;12.30;99.90;;;;;;5053483;28;20557;-61
2023/10/04 03:14:12;;;;;;;3.67;2.43;;;12.30;99.90;;;;;;5053812;28;20244;-60
2023/10/04 03:16:41;;;;;;;3.93;1.73;;;12.30;99.90;;;;;;5053485;28;20213;-60
2023/10/04 03:19:10;;;;;;;3.43;1.60;;;12.30;99.90;;;;;;5053379;28;20248;-60
2023/10/04 03:21:44;;;;;;;2.70;1.73;;;12.20;99.90;;;;;;5053481;28;20206;-60
2023/10/04 03:24:13;;;;;;;4.30;1.80;;;12.10;99.90;;;;;;5053643;28;20210;-60
2023/10/04 03:26:40;;;;;;;2.27;1.70;;;12.00;99.90;;;;;;5053440;28;20216;-61
2023/10/04 03:29:07;;;;;;;4.17;2.10;;;12.00;99.90;;;;;;5053283;28;20608;-60
2023/10/04 03:31:35;;;;;;;2.50;1.90;;;11.90;99.90;;;;;;5053251;28;20232;-61
2023/10/04 03:34:04;;;;;;;3.00;2.07;;;11.90;99.90;;;;;;5053262;28;20209;-60
2023/10/04 03:36:34;;;;;;;2.90;2.00;;;12.00;99.90;;;;;;5053130;28;20209;-60
2023/10/04 03:39:03;;;;;;;2.87;1.90;;;12.00;99.90;;;;;;5053363;28;20237;-60
2023/10/04 03:41:31;;;;;;;3.37;2.20;;;12.00;99.90;;;;;;5053212;28;20210;-59
2023/10/04 03:43:58;;;;;;;3.80;2.30;;;12.10;99.90;;;;;;5045315;28;20212;-60
2023/10/04 03:46:25;;;;;;;4.10;2.27;;;12.20;99.90;;;;;;5052874;28;20205;-60
2023/10/04 03:48:52;;;;;;;5.50;2.33;;;12.30;99.90;;;;;;5053002;28;20229;-60
2023/10/04 03:51:21;;;;;;;3.17;1.83;;;12.40;99.90;;;;;;5052490;28;20225;-60
2023/10/04 03:53:49;;;;;;;4.17;1.90;;;12.50;99.90;;;;;;5053179;28;20292;-60
2023/10/04 03:56:17;;;;;;;2.90;2.00;;;12.50;99.90;;;;;;5052717;28;20232;-60
2023/10/04 03:58:45;;;;;;;3.20;2.10;;;12.50;99.90;;;;;;5052953;28;20222;-60
2023/10/04 04:01:14;;;;;;;3.80;2.03;;;12.50;99.90;;;;;;5052557;28;20590;-60
2023/10/04 04:03:41;;;;;;;2.80;2.10;;;12.50;99.90;;;;;;5052821;28;20214;-60
2023/10/04 04:06:08;;;;;;;6.20;1.70;;;12.50;99.90;;;;;;5052910;28;20269;-59
2023/10/04 04:08:36;;;;;;;3.70;1.90;;;12.50;99.90;;;;;;5052643;28;20282;-60
2023/10/04 04:11:05;;;;;;;3.97;2.20;;;12.60;99.90;;;;;;5052697;28;20226;-60
2023/10/04 04:13:36;;;;;;;5.13;2.17;;;12.60;99.90;;;;;;5052602;28;20674;-60
2023/10/04 04:16:09;;;;;;;4.83;2.00;;;12.70;99.90;;;;;;5052715;28;20562;-60
2023/10/04 04:18:37;;;;;;;5.20;3.90;;;12.80;99.90;;;;;;5052603;28;20228;-60
2023/10/04 04:21:05;;;;;;;5.77;2.80;;;12.90;99.90;;;;;;5052661;28;20212;-59
2023/10/04 04:23:32;;;;;;;5.73;3.67;;;12.90;99.90;;;;;;5052473;28;20213;-59
2023/10/04 04:26:01;;;;;;;3.43;3.13;;;12.90;99.90;;;;;;5052378;28;20284;-60
2023/10/04 04:28:29;;;;;;;4.90;2.63;;;12.80;99.90;;;;;;5052144;28;20237;-60
2023/10/04 04:30:58;;;;;;;4.30;2.30;;;12.80;99.90;;;;;;5044061;28;20722;-60
2023/10/04 04:33:28;;;;;;;4.00;2.20;;;12.90;99.90;;;;;;5052209;28;20759;-60
2023/10/04 04:36:01;;;;;;;2.90;2.13;;;12.80;99.90;;;;;;5052097;28;20248;-59
2023/10/04 04:38:28;;;;;;;3.17;2.00;;;12.80;99.90;;;;;;5051974;28;20238;-59
2023/10/04 04:40:56;;;;;;;3.20;2.10;;;12.70;99.90;;;;;;5052326;28;20205;-59
2023/10/04 04:43:35;;;;;;;2.97;2.30;;;12.60;99.90;;;;;;5052225;28;20240;-59
2023/10/04 04:46:06;;;;;;;5.40;2.70;;;12.60;99.90;;;;;;5044717;28;20210;-59
2023/10/04 04:48:36;;;;;;;6.03;3.40;;;12.60;99.90;;;;;;5051678;28;20234;-59
2023/10/04 04:51:10;;;;;;;4.20;2.20;;;12.50;99.90;;;;;;5051691;28;20625;-60
2023/10/04 04:53:39;;;;;;;4.73;2.43;;;12.50;99.90;;;;;;5051975;28;20292;-60
2023/10/04 04:56:07;;;;;;;3.87;2.50;;;12.40;99.90;;;;;;5051799;28;20209;-61
2023/10/04 04:58:35;;;;;;;5.23;3.20;;;12.30;99.90;;;;;;5051269;28;20264;-61
2023/10/04 05:01:03;;;;;;;8.30;3.70;;;12.20;99.90;;;;;;5051551;28;20624;-60
2023/10/04 05:03:29;;;;;;;6.00;3.37;;;12.10;99.90;;;;;;5050359;28;20264;-60
2023/10/04 05:05:58;;;;;;;4.63;2.90;;;12.00;99.90;;;;;;5051059;28;20210;-60
2023/10/04 05:08:25;;;;;;;4.30;2.90;;;11.90;99.90;;;;;;5051193;28;20340;-60
2023/10/04 05:10:54;;;;;;;7.33;2.97;;;11.80;99.90;;;;;;5051010;28;20696;-60
2023/10/04 05:13:22;;;;;;;6.13;4.87;;;11.70;99.90;;;;;;5051323;28;20232;-59
2023/10/04 05:15:49;;;;;;;5.63;3.83;;;11.70;99.90;;;;;;5051282;28;20209;-59
2023/10/04 05:18:17;;;;;;;6.27;2.77;;;11.60;99.90;;;;;;5051061;28;20225;-59
2023/10/04 05:20:45;;;;;;;5.97;2.30;;;11.50;99.90;;;;;;5051611;28;20288;-59
2023/10/04 05:23:14;;;;;;;4.43;2.37;;;11.50;99.90;;;;;;5051344;28;20670;-60
2023/10/04 05:25:41;;;;;;;6.17;3.33;;;11.50;99.90;;;;;;5051289;28;20315;-60
2023/10/04 05:28:11;;;;;;;4.43;2.93;;;11.40;99.90;;;;;;5051023;28;20225;-60
2023/10/04 05:30:39;;;;;;;3.93;2.20;;;11.50;99.90;;;;;;5050746;28;20292;-59
2023/10/04 05:33:07;;;;;;;6.20;2.53;;;11.40;99.90;;;;;;5051600;28;20212;-60
2023/10/04 05:35:35;;;;;;;3.87;2.97;;;11.40;99.90;;;;;;5050825;28;20636;-59
2023/10/04 05:38:03;;;;;;;3.07;2.10;;;11.30;99.90;;;;;;5050821;28;20255;-60
2023/10/04 05:40:34;;;;;;;4.30;2.40;;;11.30;99.90;;;;;;5051182;28;20201;-59
2023/10/04 05:43:00;;;;;;;3.83;2.53;;;11.20;99.90;;;;;;5050772;28;20235;-59
2023/10/04 05:45:27;;;;;;;6.63;2.30;;;11.20;99.90;;;;;;5050694;28;20210;-60
2023/10/04 05:47:55;;;;;;;4.10;2.00;;;11.20;99.90;;;;;;5050418;28;20209;-59
2023/10/04 05:50:23;;;;;;;3.93;2.40;;;11.20;99.90;;;;;;5050850;28;20686;-60
2023/10/04 05:52:50;;;;;;;3.67;2.30;;;11.20;99.90;;;;;;5050375;28;20267;-59
2023/10/04 05:55:18;;;;;;;3.83;2.30;;;11.20;99.90;;;;;;5050527;28;20205;-61
2023/10/04 05:57:47;;;;;;;4.50;2.30;;;11.30;99.90;;;;;;5050040;28;20227;-59
2023/10/04 06:00:24;;;;;;;3.63;2.33;;;11.30;99.90;;;;;;5050517;28;20210;-60
2023/10/04 06:02:52;;;;;;;2.50;1.93;;;11.30;99.90;;;;;;5050299;28;20233;-59
2023/10/04 06:05:20;;;;;;;4.80;2.03;;;11.30;99.90;;;;;;5050774;28;20216;-61
2023/10/04 06:07:48;;;;;;;3.50;2.17;;;11.30;99.90;;;;;;5050409;28;20210;-59
2023/10/04 06:10:16;;;;;;;3.20;2.40;;;11.30;99.90;;;;;;5050602;28;20210;-59
2023/10/04 06:12:44;;;;;;;4.30;2.37;;;11.40;99.90;;;;;;5050521;28;20225;-59
2023/10/04 06:15:13;;;;;;;4.97;2.70;;;11.50;99.90;;;;;;5050435;28;20244;-59
2023/10/04 06:17:43;;;;;;;3.67;1.90;;;11.50;99.90;;;;;;5050506;28;20210;-59
2023/10/04 06:20:24;;;;;;;2.60;2.10;;;11.60;99.90;;;;;;5050658;28;20279;-61
2023/10/04 06:22:52;;;;;;;3.47;2.17;;;12.10;99.90;;;;;;5050348;28;20239;-66
2023/10/04 06:25:21;;;;;;;5.17;2.40;;;13.20;99.90;;;;;;5050612;28;20213;-60
2023/10/04 06:27:48;;;;;;;4.13;2.10;;;14.40;99.90;;;;;;5050146;28;20584;-61
2023/10/04 06:30:20;;;;;;;3.95;2.10;;;15.50;99.90;;;;;;5050356;28;20201;-60
2023/10/04 06:32:48;;;;;;;6.88;2.33;;;16.40;99.90;;;;;;5050226;28;20255;-60
2023/10/04 06:35:15;;;;;;;5.35;2.28;;;17.40;99.90;;;;;;5050596;28;20702;-60
2023/10/04 06:37:41;;;;;;;3.53;2.20;;;18.40;99.90;;;;;;5050135;28;20640;-60
2023/10/04 06:40:15;;;;;;;3.30;1.77;;;19.30;99.90;;;;;;5051259;28;20205;-60
2023/10/04 06:42:43;;;;;;;3.17;1.83;;;20.10;99.90;;;;;;5050468;28;20291;-61
2023/10/04 06:45:12;;;;;;;3.30;2.15;;;20.80;99.90;;;;;;5050798;28;20238;-59
2023/10/04 06:47:41;;;;;;;4.00;1.90;;;21.40;99.90;;;;;;5049887;28;20206;-64
2023/10/04 06:50:09;;;;;;;3.67;1.92;;;22.10;99.90;;;;;;5051128;28;20213;-64
2023/10/04 06:52:36;;;;;;;3.58;1.95;;;22.70;99.90;;;;;;5050239;28;20497;-59
2023/10/04 06:55:07;;;;;;;4.53;2.25;;;23.30;99.90;;;;;;5050508;28;20308;-59
2023/10/04 06:57:34;;;;;;;3.03;1.55;;;23.80;99.90;;;;;;5050106;28;20244;-59
2023/10/04 07:00:01;;;;;;;2.83;1.98;;;24.30;99.90;;;;;;5050666;28;20232;-58
2023/10/04 07:02:27;;;;;;;3.28;2.25;;;24.80;99.90;;;;;;5050435;28;20205;-62
2023/10/04 07:04:56;;;;;;;8.32;5.57;;;25.20;99.90;;;;;;5050695;28;20231;-64
2023/10/04 07:07:22;;;;;;;3.53;2.50;;;25.50;99.90;;;;;;5050545;28;20202;-64
2023/10/04 07:09:50;;;;;;;3.53;1.88;;;25.70;99.90;;;;;;5050979;28;20293;-63
2023/10/04 07:12:16;;;;;;;3.05;2.00;;;26.00;99.90;;;;;;5051299;28;20744;-63
2023/10/04 07:14:45;;;;;;;3.17;1.85;;;26.10;99.90;;;;;;5052458;28;20210;-63
2023/10/04 07:17:11;;;;;;;4.93;2.40;;;25.30;99.90;;;;;;5052926;28;20305;-63
2023/10/04 07:19:38;;;;;;;4.80;2.60;;;23.20;99.90;;;;;;5052712;28;20312;-63
2023/10/04 07:22:06;;;;;;;5.72;2.22;;;22.00;99.90;;;;;;5051993;28;20198;-62
2023/10/04 07:24:33;;;;;;;6.10;2.42;;;21.90;99.90;;;;;;5053792;28;20210;-64
2023/10/04 07:27:01;;;;;;;6.22;2.03;;;22.30;99.90;;;;;;5055948;28;20209;-64
2023/10/04 07:29:29;;;;;;;9.07;2.45;;;22.50;99.90;;;;;;5060497;28;20221;-63
2023/10/04 07:31:56;;;;;;;4.97;2.25;;;22.00;99.90;;;;;;5060394;28;20600;-64
2023/10/04 07:34:27;;;;;;;4.97;2.08;;;21.00;99.90;;;;;;5061604;28;20206;-64
2023/10/04 07:36:55;;;;;;;2.83;2.22;;;20.50;99.90;;;;;;5060619;28;20198;-64
2023/10/04 07:39:23;;;;;;;6.70;2.72;;;19.60;99.90;;;;;;5058569;28;20222;-63
2023/10/04 07:41:50;;;;;;;2.85;2.03;;;19.10;99.90;;;;;;5053829;28;20663;-63
2023/10/04 07:44:17;;;;;;;5.13;2.53;;;18.80;99.90;;;;;;5053757;28;20213;-64
2023/10/04 07:46:44;;;;;;;4.25;2.53;;;18.40;99.90;;;;;;5052920;28;20646;-63
2023/10/04 07:49:10;;;;;;;6.28;2.05;;;18.10;99.90;;;;;;5095071;22;20247;-60
2023/10/04 07:51:37;;;;;;;7.80;2.05;;;17.70;99.90;;;;;;5093367;28;20357;-58
2023/10/04 07:54:07;;;;;;;3.58;2.05;;;17.60;99.90;;;;;;5084825;28;20560;-56
2023/10/04 07:56:35;;;;;;;5.00;2.00;;;17.50;99.90;;;;;;5090418;28;20208;-56
2023/10/04 07:59:02;;;;;;;4.93;2.20;;;17.50;99.90;;;;;;5098176;28;20305;-56
2023/10/04 08:01:29;;;;;;;4.53;2.17;;;17.50;99.90;;;;;;5101168;28;20292;-59
2023/10/04 08:03:57;;;;;;;2.92;2.20;;;17.30;99.90;;;;;;5103631;28;20223;-59
2023/10/04 08:06:24;;;;;;;5.85;2.45;;;17.30;99.90;;;;;;5104102;28;20235;-60
2023/10/04 08:08:51;;;;;;;4.00;2.40;;;17.20;99.90;;;;;;5102376;28;20228;-59
2023/10/04 08:11:18;;;;;;;5.93;2.47;;;17.20;99.90;;;;;;5100860;28;20201;-60
2023/10/04 08:13:46;;;;;;;5.47;2.53;;;17.10;99.90;;;;;;5101583;28;20235;-60
2023/10/04 08:16:14;;;;;;;6.55;2.25;;;17.10;99.90;;;;;;5104577;28;20203;-61
2023/10/04 08:18:40;;;;;;;7.38;2.47;;;17.10;99.90;;;;;;5103953;28;20302;-61
2023/10/04 08:21:07;;;;;;;6.63;2.50;;;17.00;99.90;;;;;;5093461;28;20308;-60
2023/10/04 08:23:34;;;;;;;4.00;2.30;;;17.10;99.90;;;;;;5090864;28;20204;-58
2023/10/04 08:26:01;;;;;;;3.90;2.58;;;17.10;99.90;;;;;;5100082;28;20215;-60
2023/10/04 08:28:27;;;;;;;6.38;2.67;;;17.10;99.90;;;;;;5100434;28;20235;-60
2023/10/04 08:30:55;;;;;;;8.05;2.10;;;17.00;99.90;;;;;;5108789;28;20234;-59
2023/10/04 08:33:31;;;;;;;7.97;2.60;;;17.00;99.90;;;;;;5092478;28;20228;-58
2023/10/04 08:35:58;;;;;;;5.93;2.33;;;17.00;99.90;;;;;;5091758;28;20650;-59
2023/10/04 08:38:26;;;;;;;6.30;2.80;;;17.00;99.90;;;;;;5091174;28;20670;-60
2023/10/04 08:40:53;;;;;;;7.38;2.53;;;17.00;99.90;;;;;;5091873;28;20208;-60
2023/10/04 08:43:20;;;;;;;5.43;3.08;;;17.00;99.90;;;;;;5091974;28;20308;-61
2023/10/04 08:45:47;;;;;;;7.78;2.92;;;17.00;99.90;;;;;;5100518;28;20201;-58
2023/10/04 08:48:16;;;;;;;4.93;2.20;;;17.10;99.90;;;;;;5091352;28;20211;-60
2023/10/04 08:50:54;;;;;;;3.95;2.00;;;17.20;99.90;;;;;;5091499;28;20208;-60
2023/10/04 08:53:31;;;;;;;6.38;2.45;;;17.20;99.90;;;;;;5097805;28;20319;-61
2023/10/04 08:56:03;;;;;;;6.70;1.73;;;17.30;99.90;;;;;;5099836;28;20459;-59
2023/10/04 08:58:32;;;;;;;4.25;2.08;;;17.20;99.90;;;;;;5098497;28;20719;-60
2023/10/04 09:00:59;;;;;;;5.85;3.08;;;17.20;99.90;;;;;;5100546;28;20211;-59
2023/10/04 09:03:28;;;;;;;6.50;1.95;;;17.30;99.90;;;;;;5091230;28;20567;-61
2023/10/04 09:05:55;;;;;;;4.50;1.80;;;17.40;99.90;;;;;;5091043;28;20216;-60
2023/10/04 09:08:24;;;;;;;4.32;2.25;;;17.50;99.90;;;;;;5091030;28;20224;-60
2023/10/04 09:10:53;;;;;;;3.50;1.70;;;17.30;99.90;;;;;;5094466;28;20214;-61
2023/10/04 09:13:19;;;;;;;4.82;1.85;;;17.20;99.90;;;;;;5097797;28;20596;-58
2023/10/04 09:15:46;;;;;;;5.70;1.85;;;17.40;99.90;;;;;;5099462;28;20207;-60
2023/10/04 09:18:24;;;;;;;4.20;1.73;;;17.50;99.90;;;;;;5091346;28;20757;-59
2023/10/04 09:20:52;;;;;;;6.68;1.88;;;17.60;99.90;;;;;;5099934;28;20498;-63
2023/10/04 09:23:22;;;;;;;7.82;2.25;;;17.70;99.90;;;;;;5089730;28;20196;-59
2023/10/04 09:25:54;;;;;;;4.40;1.70;;;17.80;99.90;;;;;;5100942;28;20197;-60
2023/10/04 09:28:21;;;;;;;7.75;1.92;;;17.90;99.90;;;;;;5103304;28;20227;-60
2023/10/04 09:30:48;;;;;;;3.60;1.70;;;18.10;99.90;;;;;;5102444;28;20291;-58
2023/10/04 09:33:28;;;;;;;6.10;1.88;;;18.10;99.90;;;;;;5099253;28;20701;-60
2023/10/04 09:35:56;;;;;;;4.93;1.50;;;18.00;99.90;;;;;;5101607;28;20200;-60
2023/10/04 09:38:25;;;;;;;4.28;1.80;;;17.90;99.90;;;;;;5102829;28;20219;-60
2023/10/04 09:40:52;;;;;;;5.43;1.50;;;17.90;99.90;;;;;;5101097;28;20243;-57
2023/10/04 09:43:32;;;;;;;5.85;2.00;;;18.00;99.90;;;;;;5099303;28;20292;-58
2023/10/04 09:45:59;;;;;;;4.40;1.70;;;18.10;99.90;;;;;;5101653;28;20256;-58
2023/10/04 09:48:32;;;;;;;4.07;1.98;;;18.20;99.90;;;;;;5101957;28;20228;-58
2023/10/04 09:51:05;;;;;;;2.15;1.35;;;18.40;99.90;;;;;;5100090;28;20302;-57
2023/10/04 09:53:32;;;;;;;4.72;1.45;;;18.60;99.90;;;;;;5099155;28;20748;-59
2023/10/04 09:56:02;;;;;;;5.07;2.15;;;18.70;99.90;;;;;;5101671;28;20211;-58
2023/10/04 09:58:30;;;;;;;3.30;1.50;;;18.80;99.90;;;;;;5102317;28;20715;-58
2023/10/04 10:01:04;;;;;;;4.05;1.40;;;18.80;99.90;;;;;;5100205;28;20238;-58
2023/10/04 10:03:36;;;;;;;4.00;1.50;;;18.80;99.90;;;;;;5098546;28;20209;-58
2023/10/04 10:06:06;;;;;;;6.13;1.58;;;18.90;99.90;;;;;;5101772;28;20281;-57
2023/10/04 10:08:40;;;;;;;3.40;1.08;;;18.90;99.90;;;;;;5102593;28;20228;-57
2023/10/04 10:11:09;;;;;;;5.68;1.50;;;19.00;99.90;;;;;;5090326;28;20204;-57
2023/10/04 10:13:37;;;;;;;2.63;1.50;;;19.20;99.90;;;;;;5090597;28;20220;-57
2023/10/04 10:16:06;;;;;;;3.58;1.25;;;19.30;99.90;;;;;;5093286;28;20203;-56
2023/10/04 10:18:32;;;;;;;4.00;1.50;;;19.40;99.90;;;;;;5102107;28;20242;-57
2023/10/04 10:20:59;;;;;;;3.50;1.30;;;19.50;99.90;;;;;;5099794;28;20231;-58
2023/10/04 10:23:27;;;;;;;2.28;1.33;;;19.60;99.90;;;;;;5098824;28;20200;-57
2023/10/04 10:26:18;;;;;;;4.55;1.70;;;19.70;99.90;;;;;;5100176;28;20204;-57
2023/10/04 10:28:47;;;;;;;2.80;1.70;;;19.80;99.90;;;;;;5101461;28;20292;-57
2023/10/04 10:31:20;;;;;;;5.32;2.30;;;19.70;99.90;;;;;;5098891;28;20208;-57
2023/10/04 10:33:47;;;;;;;5.32;1.48;;;19.60;99.90;;;;;;5099272;28;20219;-57
2023/10/04 10:36:21;;;;;;;8.32;1.77;;;19.50;99.90;;;;;;5101857;28;20294;-58
2023/10/04 10:38:50;;;;;;;3.17;1.38;;;19.50;99.90;;;;;;5101451;28;20251;-58
2023/10/04 10:42:03;;;;;;;5.32;1.98;;;19.40;99.90;;;;;;5098953;28;20201;-58
2023/10/04 10:44:37;;;;;;;5.18;1.90;;;19.60;99.90;;;;;;5103503;28;20208;-59
2023/10/04 10:47:07;;;;;;;4.20;1.63;;;19.90;99.90;;;;;;5101894;28;20287;-59
2023/10/04 10:49:55;;;;;;;5.45;1.70;;;20.10;99.90;;;;;;5102128;28;20231;-59
2023/10/04 10:52:34;;;;;;;5.38;1.33;;;20.50;99.90;;;;;;5098354;28;20678;-59
2023/10/04 10:55:05;;;;;;;3.75;1.30;;;20.70;99.90;;;;;;5100854;28;20213;-59
2023/10/04 10:57:36;;;;;;;4.63;2.00;;;20.80;99.90;;;;;;5101914;28;20212;-58
2023/10/04 11:00:11;;;;;;;3.55;1.70;;;20.80;99.90;;;;;;5102001;28;20696;-60
2023/10/04 11:02:38;;;;;;;4.40;2.03;;;20.80;99.90;;;;;;5105998;28;20198;-60
2023/10/04 11:05:07;;;;;;;6.50;1.70;;;20.80;99.90;;;;;;5102830;28;20215;-57
2023/10/04 11:07:34;;;;;;;3.72;1.50;;;20.70;99.90;;;;;;5102187;28;20288;-59
2023/10/04 11:10:04;;;;;;;5.90;1.75;;;20.70;99.90;;;;;;5104604;28;20220;-59
2023/10/04 11:12:34;;;;;;;5.95;1.33;;;20.70;99.90;;;;;;5105606;28;20324;-59
2023/10/04 11:15:01;;;;;;;5.85;1.27;;;20.90;99.90;;;;;;5103065;28;20705;-60
2023/10/04 11:17:29;;;;;;;7.43;4.50;;;20.90;99.90;;;;;;5101871;28;20231;-59
2023/10/04 11:19:56;;;;;;;3.45;1.58;;;20.80;99.90;;;;;;5103453;28;20221;-58
2023/10/04 11:22:23;;;;;;;3.17;1.35;;;20.80;99.90;;;;;;5105443;28;20203;-59
2023/10/04 11:24:51;;;;;;;5.40;1.73;;;20.90;99.90;;;;;;5104470;28;20279;-58
2023/10/04 11:27:23;;;;;;;5.30;1.63;;;20.90;99.90;;;;;;5101914;28;20559;-58
2023/10/04 11:29:52;;;;;;;7.35;2.40;;;21.00;99.90;;;;;;5102517;28;20220;-58
2023/10/04 11:32:19;;;;;;;8.88;1.60;;;21.10;99.90;;;;;;5105292;28;20353;-58
2023/10/04 11:34:46;;;;;;;3.22;1.48;;;21.20;99.90;;;;;;5105028;28;20767;-58
2023/10/04 11:37:14;;;;;;;4.07;2.00;;;21.30;99.90;;;;;;5101370;28;20287;-58
2023/10/04 11:39:42;;;;;;;3.60;1.50;;;21.50;99.90;;;;;;5101559;28;20251;-58
2023/10/04 11:42:18;;;;;;;5.18;2.30;;;21.80;99.90;;;;;;5105546;28;20235;-59
2023/10/04 11:44:46;;;;;;;6.18;2.03;;;22.10;99.90;;;;;;5105164;28;20230;-58
2023/10/04 11:47:15;;;;;;;4.63;1.92;;;22.50;99.90;;;;;;5101451;28;20200;-59
2023/10/04 11:49:55;;;;;;;3.00;1.65;;;22.80;99.90;;;;;;5101252;28;20254;-59
2023/10/04 11:52:22;;;;;;;4.10;1.38;;;23.20;99.90;;;;;;5106530;28;20204;-58
2023/10/04 11:54:49;;;;;;;4.53;1.58;;;23.40;99.90;;;;;;5104056;28;20227;-60
2023/10/04 11:57:24;;;;;;;5.13;1.52;;;23.50;99.90;;;;;;5101527;28;20200;-59
2023/10/04 11:59:52;;;;;;;3.30;1.00;;;23.20;99.90;;;;;;5102006;28;20310;-59
2023/10/04 12:02:22;;;;;;;4.47;1.42;;;22.80;99.90;;;;;;5104489;28;20203;-59
2023/10/04 12:04:49;;;;;;;5.32;1.88;;;22.50;99.90;;;;;;5104250;28;20200;-57
2023/10/04 12:07:16;;;;;;;7.65;2.45;;;22.50;99.90;;;;;;5101297;28;20236;-59
2023/10/04 12:09:42;;;;;;;2.00;1.13;;;22.30;99.90;;;;;;5101032;28;20232;-59
2023/10/04 12:12:09;;;;;;;3.78;1.35;;;22.60;99.90;;;;;;5103834;28;20226;-59
2023/10/04 12:14:36;;;;;;;4.00;1.50;;;22.90;98.90;;;;;;5104642;28;20221;-58
2023/10/04 12:17:05;;;;;;;2.65;1.30;;;23.20;98.20;;;;;;5101588;28;20661;-58
2023/10/04 12:19:32;;;;;;;5.72;1.20;;;23.50;97.40;;;;;;5101187;28;20253;-59
2023/10/04 12:22:01;;;;;;;3.67;1.38;;;23.60;97.10;;;;;;5103099;28;20304;-59
2023/10/04 12:24:30;;;;;;;4.13;2.45;;;23.30;97.20;;;;;;5104911;28;20191;-60
2023/10/04 12:26:58;;;;;;;3.13;1.40;;;23.30;97.60;;;;;;5104223;28;20207;-58
2023/10/04 12:29:27;;;;;;;4.00;1.23;;;23.10;96.30;;;;;;5100765;28;20312;-59
2023/10/04 12:31:54;;;;;;;2.60;1.20;;;22.90;94.60;;;;;;5101867;28;20204;-59
2023/10/04 12:34:24;;;;;;;2.00;1.00;;;22.50;96.70;;;;;;5104051;28;20227;-58
2023/10/04 12:36:51;;;;;;;3.20;1.40;;;22.30;97.10;;;;;;5103208;28;20283;-59
2023/10/04 12:39:19;;;;;;;2.50;0.90;;;22.20;97.20;;;;;;5100647;28;20791;-59
2023/10/04 12:41:46;;;;;;;2.20;1.13;;;22.20;95.70;;;;;;5100383;28;20200;-59
2023/10/04 12:44:13;;;;;;;1.55;0.85;;;22.10;95.90;;;;;;5104406;28;20217;-60
2023/10/04 12:46:41;;;;;;;2.35;1.30;;;22.20;94.60;;;;;;5103901;28;20283;-58
2023/10/04 12:49:08;;;;;;;2.53;0.70;;;22.30;93.60;;;;;;5100715;28;20228;-59
2023/10/04 12:51:36;;;;;;;2.63;1.15;;;22.40;93.30;;;;;;5100348;28;20231;-58
2023/10/04 12:54:03;;;;;;;2.88;0.95;;;22.50;93.10;;;;;;5102379;28;20235;-58
2023/10/04 12:56:30;;;;;;;6.50;3.42;;;22.50;93.50;;;;;;5103389;28;20200;-60